Madmack — WDH4506 — position and weather

sailwx.info

Track history (hours):
 
Tides and Currents Weather Stations Pressure Air Temp Water Temp Dewpoint Dewpoint Depression Visibility Wind Speed Wind Dir Waves Ship Positions

Madmack

Owner: Ramon, Jaime L, West Palm Beach, FL. More information available from US FCC via Universal Licensing System and Coast Guard Vessel Documentation Center.

Last reported at 2018-May-26 16:32 UTC. Time now 2018-Jun-20 07:53 UTC.
Position N 26°05' W 080°10'.
Warning: this ship's position is 24 days out of date.

Length 13 m.

Type: Pleasure craft. MMSI: 367320000.

Date/timePositionNaut miles runAvg speedWind from/ knotsBaromVisibWave heightAir tempDewpointWater temp
2018-May-26 16:32N 26°05' W 080°10'0 0.1
2018-May-26 16:08N 26°05' W 080°10'0 1.4
2018-May-26 15:57N 26°06' W 080°10'2 3.0
2018-May-26 15:19N 26°07' W 080°09'1 3.4
2018-May-26 15:00N 26°07' W 080°08'4 7.6
2018-May-26 14:30N 26°03' W 080°07'5 8.5
2018-May-26 13:57N 25°58' W 080°07'4 8.3
2018-May-26 13:26N 25°54' W 080°08'2 4.3
2018-May-26 13:01N 25°53' W 080°09'2 4.6
2018-May-26 12:29N 25°51' W 080°10'3 7.2
2018-May-26 12:00N 25°47' W 080°11'1 1.1
2018-May-26 11:28N 25°47' W 080°11'0 0.0
2018-May-26 10:56N 25°47' W 080°11'0 0.0
2018-May-26 10:26N 25°47' W 080°11'0 0.0
2018-May-26 09:59N 25°47' W 080°11'0 0.0
2018-May-26 09:29N 25°47' W 080°11'0 0.0
2018-May-26 08:53N 25°47' W 080°11'0 0.0
2018-May-26 08:26N 25°47' W 080°11'0 0.0
2018-May-26 07:59N 25°47' W 080°11'0 0.0
2018-May-26 07:29N 25°47' W 080°11'0 0.0
2018-May-26 06:50N 25°47' W 080°11'0 0.0
2018-May-26 06:26N 25°47' W 080°11'0 0.0
2018-May-26 05:29N 25°47' W 080°11'0 0.0
2018-May-26 04:53N 25°47' W 080°11'0 0.0
2018-May-26 04:29N 25°47' W 080°11'0 0.0
2018-May-26 03:56N 25°47' W 080°11'0 0.0
2018-May-26 03:23N 25°47' W 080°11'0 0.0
2018-May-26 02:53N 25°47' W 080°11'0 0.0
2018-May-26 02:29N 25°47' W 080°11'0 0.0
2018-May-26 01:59N 25°47' W 080°11'0 0.0
2018-May-26 01:26N 25°47' W 080°11'0 0.0
2018-May-26 00:56N 25°47' W 080°11'0 0.0
2018-May-26 00:29N 25°47' W 080°11'0 0.0
2018-May-25 23:59N 25°47' W 080°11'0 0.0
2018-May-25 23:29N 25°47' W 080°11'0 0.0
2018-May-25 22:53N 25°47' W 080°11'0 0.0
2018-May-25 22:29N 25°47' W 080°11'0 0.0
2018-May-25 21:59N 25°47' W 080°11'0 0.0
2018-May-25 21:29N 25°47' W 080°11'0 0.0
2018-May-25 20:56N 25°47' W 080°11'0 0.0
2018-May-25 20:29N 25°47' W 080°11'0 0.0
2018-May-25 19:52N 25°47' W 080°11'0 0.0
2018-May-25 19:28N 25°47' W 080°11'0 0.0
2018-May-25 18:55N 25°47' W 080°11'0 0.0
2018-May-25 18:25N 25°47' W 080°11'0 0.0
2018-May-25 17:58N 25°47' W 080°11'0 0.0
2018-May-25 17:28N 25°47' W 080°11'0 0.0
2018-May-25 16:58N 25°47' W 080°11'0 0.0
2018-May-25 16:28N 25°47' W 080°11'0 0.0
2018-May-25 15:58N 25°47' W 080°11'0 0.0
2018-May-25 15:28N 25°47' W 080°11'0 0.0
2018-May-25 14:55N 25°47' W 080°11'0 0.0
2018-May-25 14:19N 25°47' W 080°11'0 0.0
2018-May-25 13:58N 25°47' W 080°11'0 0.0
2018-May-25 13:28N 25°47' W 080°11'0 0.0
2018-May-25 12:58N 25°47' W 080°11'0 0.0
2018-May-25 12:31N 25°47' W 080°11'0 0.0
2018-May-25 11:58N 25°47' W 080°11'0 0.0
2018-May-25 11:25N 25°47' W 080°11'0 0.0
2018-May-25 10:54N 25°47' W 080°11'0 0.0
2018-May-25 10:28N 25°47' W 080°11'0 0.0
2018-May-25 09:58N 25°47' W 080°11'0 0.0
2018-May-25 09:28N 25°47' W 080°11'0 0.0
2018-May-25 08:58N 25°47' W 080°11'0 0.0
2018-May-25 08:28N 25°47' W 080°11'0 0.0
2018-May-25 07:58N 25°47' W 080°11'0 0.0
2018-May-25 07:28N 25°47' W 080°11'0 0.0
2018-May-25 06:52N 25°47' W 080°11'0 0.0
2018-May-25 06:25N 25°47' W 080°11'0 0.0
2018-May-25 05:58N 25°47' W 080°11'0 0.0
2018-May-25 05:28N 25°47' W 080°11'0 0.0
2018-May-25 04:58N 25°47' W 080°11'0 0.0
2018-May-25 04:28N 25°47' W 080°11'0 0.0
2018-May-25 03:58N 25°47' W 080°11'0 0.0
2018-May-25 03:28N 25°47' W 080°11'0 0.0
2018-May-25 02:49N 25°47' W 080°11'0 0.0
2018-May-25 02:28N 25°47' W 080°11'0 0.0
2018-May-25 02:00N 25°47' W 080°11'0 0.0
2018-May-25 01:27N 25°47' W 080°11'0 0.0
2018-May-25 00:57N 25°47' W 080°11'0 0.0
2018-May-25 00:30N 25°47' W 080°11'0 0.0
2018-May-24 23:48N 25°47' W 080°11'0 0.0
2018-May-24 23:30N 25°47' W 080°11'0 0.0
2018-May-24 23:00N 25°47' W 080°11'0 0.0
2018-May-24 22:24N 25°47' W 080°11'0 0.0
2018-May-24 21:57N 25°47' W 080°11'0 0.0
2018-May-24 21:27N 25°47' W 080°11'0 0.0
2018-May-24 20:57N 25°47' W 080°11'0 0.0
2018-May-24 20:27N 25°47' W 080°11'0 0.0
2018-May-24 20:00N 25°47' W 080°11'0 0.0
2018-May-24 19:30N 25°47' W 080°11'0 0.0
2018-May-24 18:54N 25°47' W 080°11'0 0.0
2018-May-24 18:25N 25°47' W 080°11'0 0.0
2018-May-24 17:58N 25°47' W 080°11'0 0.0
2018-May-24 17:28N 25°47' W 080°11'0 0.0
2018-May-24 16:49N 25°47' W 080°11'0 0.0
2018-May-24 16:25N 25°47' W 080°11'0 0.0
2018-May-24 15:52N 25°47' W 080°11'0 0.0
2018-May-24 15:28N 25°47' W 080°11'0 0.0
2018-May-24 14:55N 25°47' W 080°11'0 0.0
2018-May-24 14:29N 25°47' W 080°11'0 0.0
2018-May-24 13:59N 25°47' W 080°11'0 0.0
2018-May-24 13:20N 25°47' W 080°11'0 0.0
2018-May-24 08:59N 25°47' W 080°11'0 0.0
2018-May-24 08:29N 25°47' W 080°11'0 0.0
2018-May-24 07:35N 25°47' W 080°11'0 0.0
2018-May-24 07:23N 25°47' W 080°11'0 0.0
2018-May-24 06:56N 25°47' W 080°11'0 0.0
2018-May-24 06:29N 25°47' W 080°11'0 0.0
2018-May-24 05:59N 25°47' W 080°11'0 0.0
2018-May-24 05:26N 25°47' W 080°11'0 0.0
2018-May-24 04:59N 25°47' W 080°11'0 0.0
2018-May-24 04:26N 25°47' W 080°11'0 0.0
2018-May-24 03:59N 25°47' W 080°11'0 0.0
2018-May-24 03:26N 25°47' W 080°11'0 0.0
2018-May-24 02:56N 25°47' W 080°11'0 0.0
2018-May-24 02:29N 25°47' W 080°11'0 0.0
2018-May-24 01:59N 25°47' W 080°11'0 0.0
2018-May-24 01:29N 25°47' W 080°11'0 0.0
2018-May-24 00:59N 25°47' W 080°11'0 0.0
2018-May-24 00:29N 25°47' W 080°11'0 0.0
2018-May-23 23:56N 25°47' W 080°11'0 0.0
2018-May-23 23:29N 25°47' W 080°11'0 0.0
2018-May-23 22:56N 25°47' W 080°11'0 0.0
2018-May-23 22:29N 25°47' W 080°11'0 0.0
2018-May-23 21:50N 25°47' W 080°11'0 0.0
2018-May-23 21:29N 25°47' W 080°11'0 0.0
2018-May-23 20:56N 25°47' W 080°11'0 0.0
2018-May-23 20:26N 25°47' W 080°11'0 0.0
2018-May-23 19:59N 25°47' W 080°11'0 0.0
2018-May-23 19:29N 25°47' W 080°11'0 0.0
2018-May-23 18:59N 25°47' W 080°11'0 0.0
2018-May-23 18:26N 25°47' W 080°11'0 0.0
2018-May-23 17:59N 25°47' W 080°11'0 0.0
2018-May-23 17:19N 25°47' W 080°11'0 0.0
2018-May-23 16:58N 25°47' W 080°11'0 0.0
2018-May-23 16:25N 25°47' W 080°11'0 0.0
2018-May-23 15:58N 25°47' W 080°11'0 0.0
2018-May-23 15:28N 25°47' W 080°11'0 0.0
2018-May-23 14:58N 25°47' W 080°11'0 0.0
2018-May-23 14:28N 25°47' W 080°11'0 0.0
2018-May-23 13:58N 25°47' W 080°11'0 0.0
2018-May-23 13:28N 25°47' W 080°11'0 0.0
2018-May-23 12:58N 25°47' W 080°11'0 0.0
2018-May-23 12:28N 25°47' W 080°11'0 0.0
2018-May-23 11:58N 25°47' W 080°11'0 0.0
2018-May-23 11:28N 25°47' W 080°11'0 0.0
2018-May-23 10:58N 25°47' W 080°11'0 0.0
2018-May-23 10:25N 25°47' W 080°11'0 0.0
2018-May-23 09:58N 25°47' W 080°11'0 0.0
2018-May-23 09:28N 25°47' W 080°11'0 0.0
2018-May-23 08:55N 25°47' W 080°11'0 0.0
2018-May-23 08:25N 25°47' W 080°11'0 0.0
2018-May-23 07:58N 25°47' W 080°11'0 0.0
2018-May-23 07:25N 25°47' W 080°11'0 0.0
2018-May-23 06:58N 25°47' W 080°11'0 0.0
2018-May-23 06:28N 25°47' W 080°11'0 0.0
2018-May-23 05:55N 25°47' W 080°11'0 0.0
2018-May-23 05:28N 25°47' W 080°11'0 0.0
2018-May-23 04:58N 25°47' W 080°11'0 0.0
2018-May-23 04:28N 25°47' W 080°11'0 0.0
2018-May-23 03:58N 25°47' W 080°11'0 0.0
2018-May-23 03:28N 25°47' W 080°11'0 0.0
2018-May-23 02:58N 25°47' W 080°11'0 0.0
2018-May-23 02:25N 25°47' W 080°11'0 0.0
2018-May-23 01:55N 25°47' W 080°11'0 0.0
2018-May-23 01:25N 25°47' W 080°11'0 0.0
2018-May-23 00:58N 25°47' W 080°11'0 0.0
2018-May-23 00:25N 25°47' W 080°11'0 0.0
2018-May-22 23:55N 25°47' W 080°11'0 0.0
2018-May-22 23:28N 25°47' W 080°11'0 0.0
2018-May-22 22:58N 25°47' W 080°11'0 0.0
2018-May-22 22:28N 25°47' W 080°11'0 0.0
2018-May-22 21:58N 25°47' W 080°11'0 0.0
2018-May-22 21:28N 25°47' W 080°11'0 0.0
2018-May-22 20:58N 25°47' W 080°11'0 0.0
2018-May-22 20:25N 25°47' W 080°11'0 0.0
2018-May-22 19:55N 25°47' W 080°11'0 0.0
2018-May-22 19:25N 25°47' W 080°11'0 0.0
2018-May-22 18:58N 25°47' W 080°11'0 0.0
2018-May-22 18:25N 25°47' W 080°11'0 0.0
2018-May-22 17:55N 25°47' W 080°11'0 0.0
2018-May-22 17:28N 25°47' W 080°11'0 0.0
2018-May-22 16:58N 25°47' W 080°11'0 0.0
2018-May-22 16:28N 25°47' W 080°11'0 0.0
2018-May-22 15:58N 25°47' W 080°11'0 0.0
2018-May-22 15:28N 25°47' W 080°11'0 0.0
2018-May-22 14:55N 25°47' W 080°11'0 0.0
2018-May-22 14:28N 25°47' W 080°11'0 0.0
2018-May-22 13:58N 25°47' W 080°11'0 0.0
2018-May-22 13:28N 25°47' W 080°11'0 0.0
2018-May-22 12:58N 25°47' W 080°11'0 0.0
2018-May-22 12:28N 25°47' W 080°11'0 0.0
2018-May-22 11:52N 25°47' W 080°11'0 0.0
2018-May-22 11:25N 25°47' W 080°11'0 0.0
2018-May-22 10:49N 25°47' W 080°11'0 0.0
2018-May-22 10:19N 25°47' W 080°11'0 0.0
2018-May-22 09:58N 25°47' W 080°11'0 0.0
2018-May-22 09:22N 25°47' W 080°11'0 0.0
2018-May-22 08:49N 25°47' W 080°11'0 0.0
2018-May-22 08:28N 25°47' W 080°11'0 0.0
2018-May-22 07:58N 25°47' W 080°11'0 0.0
2018-May-22 07:25N 25°47' W 080°11'0 0.0
2018-May-22 06:58N 25°47' W 080°11'0 0.0
2018-May-22 06:25N 25°47' W 080°11'0 0.0
2018-May-22 05:55N 25°47' W 080°11'0 0.0
2018-May-22 05:25N 25°47' W 080°11'0 0.0
2018-May-22 04:58N 25°47' W 080°11'0 0.0
2018-May-22 04:28N 25°47' W 080°11'0 0.0
2018-May-22 03:55N 25°47' W 080°11'0 0.0
2018-May-22 03:28N 25°47' W 080°11'0 0.0
2018-May-22 02:58N 25°47' W 080°11'0 0.0
2018-May-22 02:28N 25°47' W 080°11'0 0.0
2018-May-22 01:55N 25°47' W 080°11'0 0.0
2018-May-22 01:25N 25°47' W 080°11'0 0.0
2018-May-22 00:58N 25°47' W 080°11'0 0.0
2018-May-22 00:28N 25°47' W 080°11'0 0.0
2018-May-21 23:58N 25°47' W 080°11'0 0.0
2018-May-21 23:25N 25°47' W 080°11'0 0.0
2018-May-21 22:58N 25°47' W 080°11'0 0.0
2018-May-21 22:25N 25°47' W 080°11'0 0.0
2018-May-21 21:58N 25°47' W 080°11'0 0.0
2018-May-21 21:25N 25°47' W 080°11'0 0.0
2018-May-21 20:49N 25°47' W 080°11'0 0.0
2018-May-21 20:28N 25°47' W 080°11'0 0.0
2018-May-21 19:58N 25°47' W 080°11'0 0.0
2018-May-21 19:25N 25°47' W 080°11'0 0.0
2018-May-21 18:52N 25°47' W 080°11'0 0.0
2018-May-21 18:28N 25°47' W 080°11'0 0.0
2018-May-21 17:58N 25°47' W 080°11'0 0.0
2018-May-21 17:25N 25°47' W 080°11'0 0.0
2018-May-21 16:58N 25°47' W 080°11'0 0.0
2018-May-21 16:25N 25°47' W 080°11'0 0.0
2018-May-21 15:58N 25°47' W 080°11'0 0.0
2018-May-21 15:22N 25°47' W 080°11'0 0.0
2018-May-21 14:58N 25°47' W 080°11'0 0.0
2018-May-21 14:25N 25°47' W 080°11'0 0.0
2018-May-21 13:55N 25°47' W 080°11'0 0.0
2018-May-21 13:28N 25°47' W 080°11'0 0.0
2018-May-21 12:58N 25°47' W 080°11'0 0.0
2018-May-21 12:29N 25°47' W 080°11'0 0.0
2018-May-21 11:50N 25°47' W 080°11'0 0.0
2018-May-21 11:29N 25°47' W 080°11'0 0.0
2018-May-21 10:56N 25°47' W 080°11'0 0.0
2018-May-21 10:29N 25°47' W 080°11'0 0.0
2018-May-21 09:59N 25°47' W 080°11'0 0.0
2018-May-21 09:20N 25°47' W 080°11'0 0.0
2018-May-21 08:59N 25°47' W 080°11'0 0.0
2018-May-21 08:29N 25°47' W 080°11'0 0.0
2018-May-21 07:59N 25°47' W 080°11'0 0.0
2018-May-21 07:22N 25°47' W 080°11'0 0.0
2018-May-21 06:58N 25°47' W 080°11'0 0.0
2018-May-21 06:28N 25°47' W 080°11'0 0.0
2018-May-21 05:58N 25°47' W 080°11'0 0.0
2018-May-21 05:25N 25°47' W 080°11'0 0.0
2018-May-21 04:58N 25°47' W 080°11'0 0.0
2018-May-21 04:29N 25°47' W 080°11'0 0.0
2018-May-21 03:56N 25°47' W 080°11'0 0.0
2018-May-21 03:29N 25°47' W 080°11'0 0.0
2018-May-21 02:53N 25°47' W 080°11'0 0.0
2018-May-21 02:29N 25°47' W 080°11'0 0.0
2018-May-21 01:59N 25°47' W 080°11'0 0.0
2018-May-21 01:29N 25°47' W 080°11'0 0.0
2018-May-21 00:59N 25°47' W 080°11'0 0.0
2018-May-21 00:29N 25°47' W 080°11'0 0.0
2018-May-20 23:53N 25°47' W 080°11'0 0.0
2018-May-20 23:26N 25°47' W 080°11'0 0.0
2018-May-20 22:58N 25°47' W 080°11'0 0.0
2018-May-20 22:28N 25°47' W 080°11'0 0.0
2018-May-20 21:55N 25°47' W 080°11'0 0.0
2018-May-20 21:28N 25°47' W 080°11'0 0.0
2018-May-20 20:58N 25°47' W 080°11'0 0.0
2018-May-20 20:28N 25°47' W 080°11'0 0.0
2018-May-20 19:58N 25°47' W 080°11'0 0.0
2018-May-20 19:28N 25°47' W 080°11'0 0.0
2018-May-20 18:56N 25°47' W 080°11'0 0.0
2018-May-20 18:29N 25°47' W 080°11'0 0.0
2018-May-20 17:56N 25°47' W 080°11'0 0.0
2018-May-20 17:29N 25°47' W 080°11'0 0.0
2018-May-20 16:53N 25°47' W 080°11'0 0.0
2018-May-20 16:29N 25°47' W 080°11'0 0.0
2018-May-20 15:56N 25°47' W 080°11'0 0.0
2018-May-20 15:23N 25°47' W 080°11'0 0.0
2018-May-20 14:53N 25°47' W 080°11'0 0.0
2018-May-20 14:26N 25°47' W 080°11'0 0.0
2018-May-20 13:59N 25°47' W 080°11'0 0.0
2018-May-20 13:29N 25°47' W 080°11'0 0.0
2018-May-20 12:56N 25°47' W 080°11'0 0.0
2018-May-20 12:29N 25°47' W 080°11'0 0.0
2018-May-20 11:56N 25°47' W 080°11'0 0.0
2018-May-20 11:23N 25°47' W 080°11'0 0.0
2018-May-20 10:59N 25°47' W 080°11'0 0.0
2018-May-20 10:26N 25°47' W 080°11'0 0.0
2018-May-20 09:59N 25°47' W 080°11'0 0.0
2018-May-20 09:28N 25°47' W 080°11'0 0.0
2018-May-20 08:55N 25°47' W 080°11'0 0.0
2018-May-20 08:28N 25°47' W 080°11'0 0.0
2018-May-20 07:58N 25°47' W 080°11'0 0.0
2018-May-20 07:28N 25°47' W 080°11'0 0.0
2018-May-20 06:52N 25°47' W 080°11'0 0.0
2018-May-20 06:28N 25°47' W 080°11'0 0.0
2018-May-20 05:58N 25°47' W 080°11'0 0.0
2018-May-20 05:28N 25°47' W 080°11'0 0.0
2018-May-20 04:46N 25°47' W 080°11'0 0.0
2018-May-20 04:28N 25°47' W 080°11'0 0.0
2018-May-20 03:55N 25°47' W 080°11'0 0.0
2018-May-20 03:28N 25°47' W 080°11'0 0.0
2018-May-20 02:52N 25°47' W 080°11'0 0.0
2018-May-20 02:22N 25°47' W 080°11'0 0.0
2018-May-20 01:58N 25°47' W 080°11'0 0.0
2018-May-20 01:22N 25°47' W 080°11'0 0.0
2018-May-20 00:58N 25°47' W 080°11'0 0.0
2018-May-20 00:19N 25°47' W 080°11'0 0.0
2018-May-19 23:46N 25°47' W 080°11'0 0.0
2018-May-19 23:28N 25°47' W 080°11'0 0.0
2018-May-19 22:55N 25°47' W 080°11'0 0.0
2018-May-19 22:28N 25°47' W 080°11'0 0.0
2018-May-19 21:58N 25°47' W 080°11'0 0.0
2018-May-19 21:25N 25°47' W 080°11'0 0.0
2018-May-19 20:58N 25°47' W 080°11'0 0.0
2018-May-19 20:28N 25°47' W 080°11'0 0.0
2018-May-19 19:49N 25°47' W 080°11'0 0.0
2018-May-19 19:22N 25°47' W 080°11'0 0.0
2018-May-19 18:55N 25°47' W 080°11'0 0.0
2018-May-19 18:28N 25°47' W 080°11'0 0.0
2018-May-19 17:58N 25°47' W 080°11'0 0.0
2018-May-19 17:28N 25°47' W 080°11'0 0.0
2018-May-19 16:58N 25°47' W 080°11'0 0.0
2018-May-19 16:25N 25°47' W 080°11'0 0.0
2018-May-19 15:58N 25°47' W 080°11'0 0.0
2018-May-19 15:25N 25°47' W 080°11'0 0.0
2018-May-19 14:55N 25°47' W 080°11'0 0.0
2018-May-19 14:26N 25°47' W 080°11'0 0.0
2018-May-19 13:55N 25°47' W 080°11'0 0.0
2018-May-19 13:28N 25°47' W 080°11'0 0.0
2018-May-19 12:58N 25°47' W 080°11'0 0.0
2018-May-19 12:28N 25°47' W 080°11'0 0.0
2018-May-19 11:58N 25°47' W 080°11'0 0.0
2018-May-19 11:30N 25°47' W 080°11'0 0.0
2018-May-19 10:53N 25°47' W 080°11'0 0.0
2018-May-19 10:29N 25°47' W 080°11'0 0.0
2018-May-19 09:59N 25°47' W 080°11'0 0.0
2018-May-19 09:20N 25°47' W 080°11'0 0.0
2018-May-19 08:59N 25°47' W 080°11'0 0.0
2018-May-19 08:29N 25°47' W 080°11'0 0.0
2018-May-19 07:59N 25°47' W 080°11'0 0.0
2018-May-19 07:29N 25°47' W 080°11'0 0.0
2018-May-19 06:50N 25°47' W 080°11'0 0.0
2018-May-19 06:29N 25°47' W 080°11'0 0.0
2018-May-19 05:59N 25°47' W 080°11'0 0.0
2018-May-19 05:23N 25°47' W 080°11'0 0.0
2018-May-19 04:59N 25°47' W 080°11'0 0.0
2018-May-19 04:26N 25°47' W 080°11'0 0.0
2018-May-19 03:59N 25°47' W 080°11'0 0.0
2018-May-19 03:29N 25°47' W 080°11'0 0.0
2018-May-19 02:58N 25°47' W 080°11'0 0.0
2018-May-19 02:28N 25°47' W 080°11'0 0.0
2018-May-19 01:55N 25°47' W 080°11'0 0.0
2018-May-19 01:28N 25°47' W 080°11'0 0.0
2018-May-19 00:52N 25°47' W 080°11'0 0.0
2018-May-19 00:25N 25°47' W 080°11'0 0.0
2018-May-18 23:58N 25°47' W 080°11'0 0.0
2018-May-18 23:28N 25°47' W 080°11'0 0.0
2018-May-18 22:58N 25°47' W 080°11'0 0.0
2018-May-18 22:25N 25°47' W 080°11'0 0.0
2018-May-18 21:58N 25°47' W 080°11'0 0.0
2018-May-18 21:28N 25°47' W 080°11'0 0.0
2018-May-18 20:58N 25°47' W 080°11'0 0.0
2018-May-18 20:28N 25°47' W 080°11'0 0.0
2018-May-18 20:01N 25°47' W 080°11'0 0.0
2018-May-18 19:30N 25°47' W 080°11'0 0.0
2018-May-18 19:00N 25°47' W 080°11'0 0.0
2018-May-18 18:27N 25°47' W 080°11'0 0.0
2018-May-18 18:00N 25°47' W 080°11'0 0.0
2018-May-18 17:30N 25°47' W 080°11'0 0.0
2018-May-18 16:54N 25°47' W 080°11'0 0.0
2018-May-18 16:30N 25°47' W 080°11'0 0.0
2018-May-18 16:00N 25°47' W 080°11'0 0.0
2018-May-18 15:27N 25°47' W 080°11'0 0.0
2018-May-18 14:51N 25°47' W 080°11'0 0.0
2018-May-18 14:30N 25°47' W 080°11'0 0.0
2018-May-18 14:00N 25°47' W 080°11'0 0.0
2018-May-18 13:27N 25°47' W 080°11'0 0.0
2018-May-18 13:00N 25°47' W 080°11'0 0.0
2018-May-18 12:23N 25°47' W 080°11'0 0.0
2018-May-18 11:56N 25°47' W 080°11'0 0.0
2018-May-18 11:29N 25°47' W 080°11'0 0.0
2018-May-18 10:59N 25°47' W 080°11'0 0.0
2018-May-18 10:29N 25°47' W 080°11'0 0.0
2018-May-18 09:59N 25°47' W 080°11'0 0.0
2018-May-18 09:26N 25°47' W 080°11'0 0.0
2018-May-18 08:59N 25°47' W 080°11'0 0.0
2018-May-18 08:26N 25°47' W 080°11'0 0.0
2018-May-18 07:59N 25°47' W 080°11'0 0.0
2018-May-18 07:29N 25°47' W 080°11'0 0.0
2018-May-18 06:59N 25°47' W 080°11'0 0.0
2018-May-18 06:23N 25°47' W 080°11'0 0.0
2018-May-18 05:59N 25°47' W 080°11'0 0.0
2018-May-18 05:17N 25°47' W 080°11'0 0.0
2018-May-18 04:43N 25°47' W 080°11'0 0.0
2018-May-18 04:25N 25°47' W 080°11'0 0.0
2018-May-18 03:52N 25°47' W 080°11'0 0.0
2018-May-18 03:22N 25°47' W 080°11'0 0.0
2018-May-18 02:58N 25°47' W 080°11'0 0.0
2018-May-18 02:28N 25°47' W 080°11'0 0.0
2018-May-18 01:52N 25°47' W 080°11'0 0.0
2018-May-18 01:22N 25°47' W 080°11'0 0.0
2018-May-18 00:58N 25°47' W 080°11'0 0.0
2018-May-18 00:28N 25°47' W 080°11'0 0.0
2018-May-17 23:46N 25°47' W 080°11'0 0.0
2018-May-17 23:28N 25°47' W 080°11'0 0.0
2018-May-17 22:58N 25°47' W 080°11'0 0.0
2018-May-17 22:22N 25°47' W 080°11'0 0.0
2018-May-17 21:58N 25°47' W 080°11'0 0.0
2018-May-17 21:25N 25°47' W 080°11'0 0.0
2018-May-17 20:55N 25°47' W 080°11'0 0.0
2018-May-17 20:25N 25°47' W 080°11'0 0.0
2018-May-17 19:58N 25°47' W 080°11'0 0.0
2018-May-17 19:22N 25°47' W 080°11'0 0.0
2018-May-17 18:52N 25°47' W 080°11'0 0.0
2018-May-17 18:25N 25°47' W 080°11'0 0.0
2018-May-17 17:28N 25°47' W 080°11'0 0.0
2018-May-17 16:55N 25°47' W 080°11'0 0.0
2018-May-17 16:28N 25°47' W 080°11'0 0.0
2018-May-17 15:57N 25°47' W 080°11'0 0.0
2018-May-17 15:28N 25°47' W 080°11'0 0.0
2018-May-17 14:52N 25°47' W 080°11'0 0.0
2018-May-17 14:28N 25°47' W 080°11'0 0.0
2018-May-17 13:52N 25°47' W 080°11'0 0.0
2018-May-17 13:28N 25°47' W 080°11'0 0.0
2018-May-17 12:52N 25°47' W 080°11'0 0.0
2018-May-17 12:25N 25°47' W 080°11'0 0.0
2018-May-17 11:58N 25°47' W 080°11'0 0.0
2018-May-17 11:25N 25°47' W 080°11'0 0.0
2018-May-17 10:58N 25°47' W 080°11'0 0.0
2018-May-17 10:25N 25°47' W 080°11'0 0.0
2018-May-17 09:58N 25°47' W 080°11'0 0.0
2018-May-17 09:28N 25°47' W 080°11'0 0.0
2018-May-17 08:58N 25°47' W 080°11'0 0.0
2018-May-17 08:16N 25°47' W 080°11'0 0.0
2018-May-17 07:49N 25°47' W 080°11'0 0.0
2018-May-17 07:25N 25°47' W 080°11'0 0.0
2018-May-17 06:46N 25°47' W 080°11'0 0.0
2018-May-17 06:25N 25°47' W 080°11'0 0.0
2018-May-17 05:58N 25°47' W 080°11'0 0.0
2018-May-17 05:28N 25°47' W 080°11'0 0.0
2018-May-17 04:55N 25°47' W 080°11'0 0.0
2018-May-17 04:22N 25°47' W 080°11'0 0.0
2018-May-17 03:52N 25°47' W 080°11'0 0.0
2018-May-17 03:25N 25°47' W 080°11'0 0.0
2018-May-17 02:58N 25°47' W 080°11'0 0.0
2018-May-17 02:25N 25°47' W 080°11'0 0.0
2018-May-17 01:58N 25°47' W 080°11'0 0.0
2018-May-17 01:28N 25°47' W 080°11'0 0.0
2018-May-17 01:00N 25°47' W 080°11'0 0.0
2018-May-17 00:27N 25°47' W 080°11'0 0.0
2018-May-17 00:00N 25°47' W 080°11'0 0.0
2018-May-16 23:30N 25°47' W 080°11'0 0.0
2018-May-16 22:54N 25°47' W 080°11'0 0.0
2018-May-16 22:30N 25°47' W 080°11'0 0.0
2018-May-16 22:00N 25°47' W 080°11'0 0.0
2018-May-16 21:30N 25°47' W 080°11'0 0.0
2018-May-16 20:57N 25°47' W 080°11'0 0.0
2018-May-16 20:27N 25°47' W 080°11'0 0.0
2018-May-16 20:00N 25°47' W 080°11'0 0.0
2018-May-16 19:30N 25°47' W 080°11'0 0.0
2018-May-16 19:00N 25°47' W 080°11'0 0.0
2018-May-16 18:30N 25°47' W 080°11'0 0.0
2018-May-16 18:00N 25°47' W 080°11'0 0.0
2018-May-16 17:30N 25°47' W 080°11'0 0.0
2018-May-16 16:57N 25°47' W 080°11'  
Track history (hours):
 
Tides and Currents Weather Stations Pressure Air Temp Water Temp Dewpoint Dewpoint Depression Visibility Wind Speed Wind Dir Waves Ship Positions

Madmack

Owner: Ramon, Jaime L, West Palm Beach, FL. More information available from US FCC via Universal Licensing System and Coast Guard Vessel Documentation Center.

Last reported at 2018-May-26 16:32 UTC. Time now 2018-Jun-20 07:53 UTC.
Position N 26°05' W 080°10'.
Warning: this ship's position is 24 days out of date.

Length 13 m.

Type: Pleasure craft. MMSI: 367320000.

Date/timePositionNaut miles runAvg speedWind from/ knotsBaromVisibWave heightAir tempDewpointWater temp
2018-May-26 16:32N 26°05' W 080°10'0 0.1
2018-May-26 16:08N 26°05' W 080°10'0 1.4
2018-May-26 15:57N 26°06' W 080°10'2 3.0
2018-May-26 15:19N 26°07' W 080°09'1 3.4
2018-May-26 15:00N 26°07' W 080°08'4 7.6
2018-May-26 14:30N 26°03' W 080°07'5 8.5
2018-May-26 13:57N 25°58' W 080°07'4 8.3
2018-May-26 13:26N 25°54' W 080°08'2 4.3
2018-May-26 13:01N 25°53' W 080°09'2 4.6
2018-May-26 12:29N 25°51' W 080°10'3 7.2
2018-May-26 12:00N 25°47' W 080°11'1 1.1
2018-May-26 11:28N 25°47' W 080°11'0 0.0
2018-May-26 10:56N 25°47' W 080°11'0 0.0
2018-May-26 10:26N 25°47' W 080°11'0 0.0
2018-May-26 09:59N 25°47' W 080°11'0 0.0
2018-May-26 09:29N 25°47' W 080°11'0 0.0
2018-May-26 08:53N 25°47' W 080°11'0 0.0
2018-May-26 08:26N 25°47' W 080°11'0 0.0
2018-May-26 07:59N 25°47' W 080°11'0 0.0
2018-May-26 07:29N 25°47' W 080°11'0 0.0
2018-May-26 06:50N 25°47' W 080°11'0 0.0
2018-May-26 06:26N 25°47' W 080°11'0 0.0
2018-May-26 05:29N 25°47' W 080°11'0 0.0
2018-May-26 04:53N 25°47' W 080°11'0 0.0
2018-May-26 04:29N 25°47' W 080°11'0 0.0
2018-May-26 03:56N 25°47' W 080°11'0 0.0
2018-May-26 03:23N 25°47' W 080°11'0 0.0
2018-May-26 02:53N 25°47' W 080°11'0 0.0
2018-May-26 02:29N 25°47' W 080°11'0 0.0
2018-May-26 01:59N 25°47' W 080°11'0 0.0
2018-May-26 01:26N 25°47' W 080°11'0 0.0
2018-May-26 00:56N 25°47' W 080°11'0 0.0
2018-May-26 00:29N 25°47' W 080°11'0 0.0
2018-May-25 23:59N 25°47' W 080°11'0 0.0
2018-May-25 23:29N 25°47' W 080°11'0 0.0
2018-May-25 22:53N 25°47' W 080°11'0 0.0
2018-May-25 22:29N 25°47' W 080°11'0 0.0
2018-May-25 21:59N 25°47' W 080°11'0 0.0
2018-May-25 21:29N 25°47' W 080°11'0 0.0
2018-May-25 20:56N 25°47' W 080°11'0 0.0
2018-May-25 20:29N 25°47' W 080°11'0 0.0
2018-May-25 19:52N 25°47' W 080°11'0 0.0
2018-May-25 19:28N 25°47' W 080°11'0 0.0
2018-May-25 18:55N 25°47' W 080°11'0 0.0
2018-May-25 18:25N 25°47' W 080°11'0 0.0
2018-May-25 17:58N 25°47' W 080°11'0 0.0
2018-May-25 17:28N 25°47' W 080°11'0 0.0
2018-May-25 16:58N 25°47' W 080°11'0 0.0
2018-May-25 16:28N 25°47' W 080°11'0 0.0
2018-May-25 15:58N 25°47' W 080°11'0 0.0
2018-May-25 15:28N 25°47' W 080°11'0 0.0
2018-May-25 14:55N 25°47' W 080°11'0 0.0
2018-May-25 14:19N 25°47' W 080°11'0 0.0
2018-May-25 13:58N 25°47' W 080°11'0 0.0
2018-May-25 13:28N 25°47' W 080°11'0 0.0
2018-May-25 12:58N 25°47' W 080°11'0 0.0
2018-May-25 12:31N 25°47' W 080°11'0 0.0
2018-May-25 11:58N 25°47' W 080°11'0 0.0
2018-May-25 11:25N 25°47' W 080°11'0 0.0
2018-May-25 10:54N 25°47' W 080°11'0 0.0
2018-May-25 10:28N 25°47' W 080°11'0 0.0
2018-May-25 09:58N 25°47' W 080°11'0 0.0
2018-May-25 09:28N 25°47' W 080°11'0 0.0
2018-May-25 08:58N 25°47' W 080°11'0 0.0
2018-May-25 08:28N 25°47' W 080°11'0 0.0
2018-May-25 07:58N 25°47' W 080°11'0 0.0
2018-May-25 07:28N 25°47' W 080°11'0 0.0
2018-May-25 06:52N 25°47' W 080°11'0 0.0
2018-May-25 06:25N 25°47' W 080°11'0 0.0
2018-May-25 05:58N 25°47' W 080°11'0 0.0
2018-May-25 05:28N 25°47' W 080°11'0 0.0
2018-May-25 04:58N 25°47' W 080°11'0 0.0
2018-May-25 04:28N 25°47' W 080°11'0 0.0
2018-May-25 03:58N 25°47' W 080°11'0 0.0
2018-May-25 03:28N 25°47' W 080°11'0 0.0
2018-May-25 02:49N 25°47' W 080°11'0 0.0
2018-May-25 02:28N 25°47' W 080°11'0 0.0
2018-May-25 02:00N 25°47' W 080°11'0 0.0
2018-May-25 01:27N 25°47' W 080°11'0 0.0
2018-May-25 00:57N 25°47' W 080°11'0 0.0
2018-May-25 00:30N 25°47' W 080°11'0 0.0
2018-May-24 23:48N 25°47' W 080°11'0 0.0
2018-May-24 23:30N 25°47' W 080°11'0 0.0
2018-May-24 23:00N 25°47' W 080°11'0 0.0
2018-May-24 22:24N 25°47' W 080°11'0 0.0
2018-May-24 21:57N 25°47' W 080°11'0 0.0
2018-May-24 21:27N 25°47' W 080°11'0 0.0
2018-May-24 20:57N 25°47' W 080°11'0 0.0
2018-May-24 20:27N 25°47' W 080°11'0 0.0
2018-May-24 20:00N 25°47' W 080°11'0 0.0
2018-May-24 19:30N 25°47' W 080°11'0 0.0
2018-May-24 18:54N 25°47' W 080°11'0 0.0
2018-May-24 18:25N 25°47' W 080°11'0 0.0
2018-May-24 17:58N 25°47' W 080°11'0 0.0
2018-May-24 17:28N 25°47' W 080°11'0 0.0
2018-May-24 16:49N 25°47' W 080°11'0 0.0
2018-May-24 16:25N 25°47' W 080°11'0 0.0
2018-May-24 15:52N 25°47' W 080°11'0 0.0
2018-May-24 15:28N 25°47' W 080°11'0 0.0
2018-May-24 14:55N 25°47' W 080°11'0 0.0
2018-May-24 14:29N 25°47' W 080°11'0 0.0
2018-May-24 13:59N 25°47' W 080°11'0 0.0
2018-May-24 13:20N 25°47' W 080°11'0 0.0
2018-May-24 08:59N 25°47' W 080°11'0 0.0
2018-May-24 08:29N 25°47' W 080°11'0 0.0
2018-May-24 07:35N 25°47' W 080°11'0 0.0
2018-May-24 07:23N 25°47' W 080°11'0 0.0
2018-May-24 06:56N 25°47' W 080°11'0 0.0
2018-May-24 06:29N 25°47' W 080°11'0 0.0
2018-May-24 05:59N 25°47' W 080°11'0 0.0
2018-May-24 05:26N 25°47' W 080°11'0 0.0
2018-May-24 04:59N 25°47' W 080°11'0 0.0
2018-May-24 04:26N 25°47' W 080°11'0 0.0
2018-May-24 03:59N 25°47' W 080°11'0 0.0
2018-May-24 03:26N 25°47' W 080°11'0 0.0
2018-May-24 02:56N 25°47' W 080°11'0 0.0
2018-May-24 02:29N 25°47' W 080°11'0 0.0
2018-May-24 01:59N 25°47' W 080°11'0 0.0
2018-May-24 01:29N 25°47' W 080°11'0 0.0
2018-May-24 00:59N 25°47' W 080°11'0 0.0
2018-May-24 00:29N 25°47' W 080°11'0 0.0
2018-May-23 23:56N 25°47' W 080°11'0 0.0
2018-May-23 23:29N 25°47' W 080°11'0 0.0
2018-May-23 22:56N 25°47' W 080°11'0 0.0
2018-May-23 22:29N 25°47' W 080°11'0 0.0
2018-May-23 21:50N 25°47' W 080°11'0 0.0
2018-May-23 21:29N 25°47' W 080°11'0 0.0
2018-May-23 20:56N 25°47' W 080°11'0 0.0
2018-May-23 20:26N 25°47' W 080°11'0 0.0
2018-May-23 19:59N 25°47' W 080°11'0 0.0
2018-May-23 19:29N 25°47' W 080°11'0 0.0
2018-May-23 18:59N 25°47' W 080°11'0 0.0
2018-May-23 18:26N 25°47' W 080°11'0 0.0
2018-May-23 17:59N 25°47' W 080°11'0 0.0
2018-May-23 17:19N 25°47' W 080°11'0 0.0
2018-May-23 16:58N 25°47' W 080°11'0 0.0
2018-May-23 16:25N 25°47' W 080°11'0 0.0
2018-May-23 15:58N 25°47' W 080°11'0 0.0
2018-May-23 15:28N 25°47' W 080°11'0 0.0
2018-May-23 14:58N 25°47' W 080°11'0 0.0
2018-May-23 14:28N 25°47' W 080°11'0 0.0
2018-May-23 13:58N 25°47' W 080°11'0 0.0
2018-May-23 13:28N 25°47' W 080°11'0 0.0
2018-May-23 12:58N 25°47' W 080°11'0 0.0
2018-May-23 12:28N 25°47' W 080°11'0 0.0
2018-May-23 11:58N 25°47' W 080°11'0 0.0
2018-May-23 11:28N 25°47' W 080°11'0 0.0
2018-May-23 10:58N 25°47' W 080°11'0 0.0
2018-May-23 10:25N 25°47' W 080°11'0 0.0
2018-May-23 09:58N 25°47' W 080°11'0 0.0
2018-May-23 09:28N 25°47' W 080°11'0 0.0
2018-May-23 08:55N 25°47' W 080°11'0 0.0
2018-May-23 08:25N 25°47' W 080°11'0 0.0
2018-May-23 07:58N 25°47' W 080°11'0 0.0
2018-May-23 07:25N 25°47' W 080°11'0 0.0
2018-May-23 06:58N 25°47' W 080°11'0 0.0
2018-May-23 06:28N 25°47' W 080°11'0 0.0
2018-May-23 05:55N 25°47' W 080°11'0 0.0
2018-May-23 05:28N 25°47' W 080°11'0 0.0
2018-May-23 04:58N 25°47' W 080°11'0 0.0
2018-May-23 04:28N 25°47' W 080°11'0 0.0
2018-May-23 03:58N 25°47' W 080°11'0 0.0
2018-May-23 03:28N 25°47' W 080°11'0 0.0
2018-May-23 02:58N 25°47' W 080°11'0 0.0
2018-May-23 02:25N 25°47' W 080°11'0 0.0
2018-May-23 01:55N 25°47' W 080°11'0 0.0
2018-May-23 01:25N 25°47' W 080°11'0 0.0
2018-May-23 00:58N 25°47' W 080°11'0 0.0
2018-May-23 00:25N 25°47' W 080°11'0 0.0
2018-May-22 23:55N 25°47' W 080°11'0 0.0
2018-May-22 23:28N 25°47' W 080°11'0 0.0
2018-May-22 22:58N 25°47' W 080°11'0 0.0
2018-May-22 22:28N 25°47' W 080°11'0 0.0
2018-May-22 21:58N 25°47' W 080°11'0 0.0
2018-May-22 21:28N 25°47' W 080°11'0 0.0
2018-May-22 20:58N 25°47' W 080°11'0 0.0
2018-May-22 20:25N 25°47' W 080°11'0 0.0
2018-May-22 19:55N 25°47' W 080°11'0 0.0
2018-May-22 19:25N 25°47' W 080°11'0 0.0
2018-May-22 18:58N 25°47' W 080°11'0 0.0
2018-May-22 18:25N 25°47' W 080°11'0 0.0
2018-May-22 17:55N 25°47' W 080°11'0 0.0
2018-May-22 17:28N 25°47' W 080°11'0 0.0
2018-May-22 16:58N 25°47' W 080°11'0 0.0
2018-May-22 16:28N 25°47' W 080°11'0 0.0
2018-May-22 15:58N 25°47' W 080°11'0 0.0
2018-May-22 15:28N 25°47' W 080°11'0 0.0
2018-May-22 14:55N 25°47' W 080°11'0 0.0
2018-May-22 14:28N 25°47' W 080°11'0 0.0
2018-May-22 13:58N 25°47' W 080°11'0 0.0
2018-May-22 13:28N 25°47' W 080°11'0 0.0
2018-May-22 12:58N 25°47' W 080°11'0 0.0
2018-May-22 12:28N 25°47' W 080°11'0 0.0
2018-May-22 11:52N 25°47' W 080°11'0 0.0
2018-May-22 11:25N 25°47' W 080°11'0 0.0
2018-May-22 10:49N 25°47' W 080°11'0 0.0
2018-May-22 10:19N 25°47' W 080°11'0 0.0
2018-May-22 09:58N 25°47' W 080°11'0 0.0
2018-May-22 09:22N 25°47' W 080°11'0 0.0
2018-May-22 08:49N 25°47' W 080°11'0 0.0
2018-May-22 08:28N 25°47' W 080°11'0 0.0
2018-May-22 07:58N 25°47' W 080°11'0 0.0
2018-May-22 07:25N 25°47' W 080°11'0 0.0
2018-May-22 06:58N 25°47' W 080°11'0 0.0
2018-May-22 06:25N 25°47' W 080°11'0 0.0
2018-May-22 05:55N 25°47' W 080°11'0 0.0
2018-May-22 05:25N 25°47' W 080°11'0 0.0
2018-May-22 04:58N 25°47' W 080°11'0 0.0
2018-May-22 04:28N 25°47' W 080°11'0 0.0
2018-May-22 03:55N 25°47' W 080°11'0 0.0
2018-May-22 03:28N 25°47' W 080°11'0 0.0
2018-May-22 02:58N 25°47' W 080°11'0 0.0
2018-May-22 02:28N 25°47' W 080°11'0 0.0
2018-May-22 01:55N 25°47' W 080°11'0 0.0
2018-May-22 01:25N 25°47' W 080°11'0 0.0
2018-May-22 00:58N 25°47' W 080°11'0 0.0
2018-May-22 00:28N 25°47' W 080°11'0 0.0
2018-May-21 23:58N 25°47' W 080°11'0 0.0
2018-May-21 23:25N 25°47' W 080°11'0 0.0
2018-May-21 22:58N 25°47' W 080°11'0 0.0
2018-May-21 22:25N 25°47' W 080°11'0 0.0
2018-May-21 21:58N 25°47' W 080°11'0 0.0
2018-May-21 21:25N 25°47' W 080°11'0 0.0
2018-May-21 20:49N 25°47' W 080°11'0 0.0
2018-May-21 20:28N 25°47' W 080°11'0 0.0
2018-May-21 19:58N 25°47' W 080°11'0 0.0
2018-May-21 19:25N 25°47' W 080°11'0 0.0
2018-May-21 18:52N 25°47' W 080°11'0 0.0
2018-May-21 18:28N 25°47' W 080°11'0 0.0
2018-May-21 17:58N 25°47' W 080°11'0 0.0
2018-May-21 17:25N 25°47' W 080°11'0 0.0
2018-May-21 16:58N 25°47' W 080°11'0 0.0
2018-May-21 16:25N 25°47' W 080°11'0 0.0
2018-May-21 15:58N 25°47' W 080°11'0 0.0
2018-May-21 15:22N 25°47' W 080°11'0 0.0
2018-May-21 14:58N 25°47' W 080°11'0 0.0
2018-May-21 14:25N 25°47' W 080°11'0 0.0
2018-May-21 13:55N 25°47' W 080°11'0 0.0
2018-May-21 13:28N 25°47' W 080°11'0 0.0
2018-May-21 12:58N 25°47' W 080°11'0 0.0
2018-May-21 12:29N 25°47' W 080°11'0 0.0
2018-May-21 11:50N 25°47' W 080°11'0 0.0
2018-May-21 11:29N 25°47' W 080°11'0 0.0
2018-May-21 10:56N 25°47' W 080°11'0 0.0
2018-May-21 10:29N 25°47' W 080°11'0 0.0
2018-May-21 09:59N 25°47' W 080°11'0 0.0
2018-May-21 09:20N 25°47' W 080°11'0 0.0
2018-May-21 08:59N 25°47' W 080°11'0 0.0
2018-May-21 08:29N 25°47' W 080°11'0 0.0
2018-May-21 07:59N 25°47' W 080°11'0 0.0
2018-May-21 07:22N 25°47' W 080°11'0 0.0
2018-May-21 06:58N 25°47' W 080°11'0 0.0
2018-May-21 06:28N 25°47' W 080°11'0 0.0
2018-May-21 05:58N 25°47' W 080°11'0 0.0
2018-May-21 05:25N 25°47' W 080°11'0 0.0
2018-May-21 04:58N 25°47' W 080°11'0 0.0
2018-May-21 04:29N 25°47' W 080°11'0 0.0
2018-May-21 03:56N 25°47' W 080°11'0 0.0
2018-May-21 03:29N 25°47' W 080°11'0 0.0
2018-May-21 02:53N 25°47' W 080°11'0 0.0
2018-May-21 02:29N 25°47' W 080°11'0 0.0
2018-May-21 01:59N 25°47' W 080°11'0 0.0
2018-May-21 01:29N 25°47' W 080°11'0 0.0
2018-May-21 00:59N 25°47' W 080°11'0 0.0
2018-May-21 00:29N 25°47' W 080°11'0 0.0
2018-May-20 23:53N 25°47' W 080°11'0 0.0
2018-May-20 23:26N 25°47' W 080°11'0 0.0
2018-May-20 22:58N 25°47' W 080°11'0 0.0
2018-May-20 22:28N 25°47' W 080°11'0 0.0
2018-May-20 21:55N 25°47' W 080°11'0 0.0
2018-May-20 21:28N 25°47' W 080°11'0 0.0
2018-May-20 20:58N 25°47' W 080°11'0 0.0
2018-May-20 20:28N 25°47' W 080°11'0 0.0
2018-May-20 19:58N 25°47' W 080°11'0 0.0
2018-May-20 19:28N 25°47' W 080°11'0 0.0
2018-May-20 18:56N 25°47' W 080°11'0 0.0
2018-May-20 18:29N 25°47' W 080°11'0 0.0
2018-May-20 17:56N 25°47' W 080°11'0 0.0
2018-May-20 17:29N 25°47' W 080°11'0 0.0
2018-May-20 16:53N 25°47' W 080°11'0 0.0
2018-May-20 16:29N 25°47' W 080°11'0 0.0
2018-May-20 15:56N 25°47' W 080°11'0 0.0
2018-May-20 15:23N 25°47' W 080°11'0 0.0
2018-May-20 14:53N 25°47' W 080°11'0 0.0
2018-May-20 14:26N 25°47' W 080°11'0 0.0
2018-May-20 13:59N 25°47' W 080°11'0 0.0
2018-May-20 13:29N 25°47' W 080°11'0 0.0
2018-May-20 12:56N 25°47' W 080°11'0 0.0
2018-May-20 12:29N 25°47' W 080°11'0 0.0
2018-May-20 11:56N 25°47' W 080°11'0 0.0
2018-May-20 11:23N 25°47' W 080°11'0 0.0
2018-May-20 10:59N 25°47' W 080°11'0 0.0
2018-May-20 10:26N 25°47' W 080°11'0 0.0
2018-May-20 09:59N 25°47' W 080°11'0 0.0
2018-May-20 09:28N 25°47' W 080°11'0 0.0
2018-May-20 08:55N 25°47' W 080°11'0 0.0
2018-May-20 08:28N 25°47' W 080°11'0 0.0
2018-May-20 07:58N 25°47' W 080°11'0 0.0
2018-May-20 07:28N 25°47' W 080°11'0 0.0
2018-May-20 06:52N 25°47' W 080°11'0 0.0
2018-May-20 06:28N 25°47' W 080°11'0 0.0
2018-May-20 05:58N 25°47' W 080°11'0 0.0
2018-May-20 05:28N 25°47' W 080°11'0 0.0
2018-May-20 04:46N 25°47' W 080°11'0 0.0
2018-May-20 04:28N 25°47' W 080°11'0 0.0
2018-May-20 03:55N 25°47' W 080°11'0 0.0
2018-May-20 03:28N 25°47' W 080°11'0 0.0
2018-May-20 02:52N 25°47' W 080°11'0 0.0
2018-May-20 02:22N 25°47' W 080°11'0 0.0
2018-May-20 01:58N 25°47' W 080°11'0 0.0
2018-May-20 01:22N 25°47' W 080°11'0 0.0
2018-May-20 00:58N 25°47' W 080°11'0 0.0
2018-May-20 00:19N 25°47' W 080°11'0 0.0
2018-May-19 23:46N 25°47' W 080°11'0 0.0
2018-May-19 23:28N 25°47' W 080°11'0 0.0
2018-May-19 22:55N 25°47' W 080°11'0 0.0
2018-May-19 22:28N 25°47' W 080°11'0 0.0
2018-May-19 21:58N 25°47' W 080°11'0 0.0
2018-May-19 21:25N 25°47' W 080°11'0 0.0
2018-May-19 20:58N 25°47' W 080°11'0 0.0
2018-May-19 20:28N 25°47' W 080°11'0 0.0
2018-May-19 19:49N 25°47' W 080°11'0 0.0
2018-May-19 19:22N 25°47' W 080°11'0 0.0
2018-May-19 18:55N 25°47' W 080°11'0 0.0
2018-May-19 18:28N 25°47' W 080°11'0 0.0
2018-May-19 17:58N 25°47' W 080°11'0 0.0
2018-May-19 17:28N 25°47' W 080°11'0 0.0
2018-May-19 16:58N 25°47' W 080°11'0 0.0
2018-May-19 16:25N 25°47' W 080°11'0 0.0
2018-May-19 15:58N 25°47' W 080°11'0 0.0
2018-May-19 15:25N 25°47' W 080°11'0 0.0
2018-May-19 14:55N 25°47' W 080°11'0 0.0
2018-May-19 14:26N 25°47' W 080°11'0 0.0
2018-May-19 13:55N 25°47' W 080°11'0 0.0
2018-May-19 13:28N 25°47' W 080°11'0 0.0
2018-May-19 12:58N 25°47' W 080°11'0 0.0
2018-May-19 12:28N 25°47' W 080°11'0 0.0
2018-May-19 11:58N 25°47' W 080°11'0 0.0
2018-May-19 11:30N 25°47' W 080°11'0 0.0
2018-May-19 10:53N 25°47' W 080°11'0 0.0
2018-May-19 10:29N 25°47' W 080°11'0 0.0
2018-May-19 09:59N 25°47' W 080°11'0 0.0
2018-May-19 09:20N 25°47' W 080°11'0 0.0
2018-May-19 08:59N 25°47' W 080°11'0 0.0
2018-May-19 08:29N 25°47' W 080°11'0 0.0
2018-May-19 07:59N 25°47' W 080°11'0 0.0
2018-May-19 07:29N 25°47' W 080°11'0 0.0
2018-May-19 06:50N 25°47' W 080°11'0 0.0
2018-May-19 06:29N 25°47' W 080°11'0 0.0
2018-May-19 05:59N 25°47' W 080°11'0 0.0
2018-May-19 05:23N 25°47' W 080°11'0 0.0
2018-May-19 04:59N 25°47' W 080°11'0 0.0
2018-May-19 04:26N 25°47' W 080°11'0 0.0
2018-May-19 03:59N 25°47' W 080°11'0 0.0
2018-May-19 03:29N 25°47' W 080°11'0 0.0
2018-May-19 02:58N 25°47' W 080°11'0 0.0
2018-May-19 02:28N 25°47' W 080°11'0 0.0
2018-May-19 01:55N 25°47' W 080°11'0 0.0
2018-May-19 01:28N 25°47' W 080°11'0 0.0
2018-May-19 00:52N 25°47' W 080°11'0 0.0
2018-May-19 00:25N 25°47' W 080°11'0 0.0
2018-May-18 23:58N 25°47' W 080°11'0 0.0
2018-May-18 23:28N 25°47' W 080°11'0 0.0
2018-May-18 22:58N 25°47' W 080°11'0 0.0
2018-May-18 22:25N 25°47' W 080°11'0 0.0
2018-May-18 21:58N 25°47' W 080°11'0 0.0
2018-May-18 21:28N 25°47' W 080°11'0 0.0
2018-May-18 20:58N 25°47' W 080°11'0 0.0
2018-May-18 20:28N 25°47' W 080°11'0 0.0
2018-May-18 20:01N 25°47' W 080°11'0 0.0
2018-May-18 19:30N 25°47' W 080°11'0 0.0
2018-May-18 19:00N 25°47' W 080°11'0 0.0
2018-May-18 18:27N 25°47' W 080°11'0 0.0
2018-May-18 18:00N 25°47' W 080°11'0 0.0
2018-May-18 17:30N 25°47' W 080°11'0 0.0
2018-May-18 16:54N 25°47' W 080°11'0 0.0
2018-May-18 16:30N 25°47' W 080°11'0 0.0
2018-May-18 16:00N 25°47' W 080°11'0 0.0
2018-May-18 15:27N 25°47' W 080°11'0 0.0
2018-May-18 14:51N 25°47' W 080°11'0 0.0
2018-May-18 14:30N 25°47' W 080°11'0 0.0
2018-May-18 14:00N 25°47' W 080°11'0 0.0
2018-May-18 13:27N 25°47' W 080°11'0 0.0
2018-May-18 13:00N 25°47' W 080°11'0 0.0
2018-May-18 12:23N 25°47' W 080°11'0 0.0
2018-May-18 11:56N 25°47' W 080°11'0 0.0
2018-May-18 11:29N 25°47' W 080°11'0 0.0
2018-May-18 10:59N 25°47' W 080°11'0 0.0
2018-May-18 10:29N 25°47' W 080°11'0 0.0
2018-May-18 09:59N 25°47' W 080°11'0 0.0
2018-May-18 09:26N 25°47' W 080°11'0 0.0
2018-May-18 08:59N 25°47' W 080°11'0 0.0
2018-May-18 08:26N 25°47' W 080°11'0 0.0
2018-May-18 07:59N 25°47' W 080°11'0 0.0
2018-May-18 07:29N 25°47' W 080°11'0 0.0
2018-May-18 06:59N 25°47' W 080°11'0 0.0
2018-May-18 06:23N 25°47' W 080°11'0 0.0
2018-May-18 05:59N 25°47' W 080°11'0 0.0
2018-May-18 05:17N 25°47' W 080°11'0 0.0
2018-May-18 04:43N 25°47' W 080°11'0 0.0
2018-May-18 04:25N 25°47' W 080°11'0 0.0
2018-May-18 03:52N 25°47' W 080°11'0 0.0
2018-May-18 03:22N 25°47' W 080°11'0 0.0
2018-May-18 02:58N 25°47' W 080°11'0 0.0
2018-May-18 02:28N 25°47' W 080°11'0 0.0
2018-May-18 01:52N 25°47' W 080°11'0 0.0
2018-May-18 01:22N 25°47' W 080°11'0 0.0
2018-May-18 00:58N 25°47' W 080°11'0 0.0
2018-May-18 00:28N 25°47' W 080°11'0 0.0
2018-May-17 23:46N 25°47' W 080°11'0 0.0
2018-May-17 23:28N 25°47' W 080°11'0 0.0
2018-May-17 22:58N 25°47' W 080°11'0 0.0
2018-May-17 22:22N 25°47' W 080°11'0 0.0
2018-May-17 21:58N 25°47' W 080°11'0 0.0
2018-May-17 21:25N 25°47' W 080°11'0 0.0
2018-May-17 20:55N 25°47' W 080°11'0 0.0
2018-May-17 20:25N 25°47' W 080°11'0 0.0
2018-May-17 19:58N 25°47' W 080°11'0 0.0
2018-May-17 19:22N 25°47' W 080°11'0 0.0
2018-May-17 18:52N 25°47' W 080°11'0 0.0
2018-May-17 18:25N 25°47' W 080°11'0 0.0
2018-May-17 17:28N 25°47' W 080°11'0 0.0
2018-May-17 16:55N 25°47' W 080°11'0 0.0
2018-May-17 16:28N 25°47' W 080°11'0 0.0
2018-May-17 15:57N 25°47' W 080°11'0 0.0
2018-May-17 15:28N 25°47' W 080°11'0 0.0
2018-May-17 14:52N 25°47' W 080°11'0 0.0
2018-May-17 14:28N 25°47' W 080°11'0 0.0
2018-May-17 13:52N 25°47' W 080°11'0 0.0
2018-May-17 13:28N 25°47' W 080°11'0 0.0
2018-May-17 12:52N 25°47' W 080°11'0 0.0
2018-May-17 12:25N 25°47' W 080°11'0 0.0
2018-May-17 11:58N 25°47' W 080°11'0 0.0
2018-May-17 11:25N 25°47' W 080°11'0 0.0
2018-May-17 10:58N 25°47' W 080°11'0 0.0
2018-May-17 10:25N 25°47' W 080°11'0 0.0
2018-May-17 09:58N 25°47' W 080°11'0 0.0
2018-May-17 09:28N 25°47' W 080°11'0 0.0
2018-May-17 08:58N 25°47' W 080°11'0 0.0
2018-May-17 08:16N 25°47' W 080°11'0 0.0
2018-May-17 07:49N 25°47' W 080°11'0 0.0
2018-May-17 07:25N 25°47' W 080°11'0 0.0
2018-May-17 06:46N 25°47' W 080°11'0 0.0
2018-May-17 06:25N 25°47' W 080°11'0 0.0
2018-May-17 05:58N 25°47' W 080°11'0 0.0
2018-May-17 05:28N 25°47' W 080°11'0 0.0
2018-May-17 04:55N 25°47' W 080°11'0 0.0
2018-May-17 04:22N 25°47' W 080°11'0 0.0
2018-May-17 03:52N 25°47' W 080°11'0 0.0
2018-May-17 03:25N 25°47' W 080°11'0 0.0
2018-May-17 02:58N 25°47' W 080°11'0 0.0
2018-May-17 02:25N 25°47' W 080°11'0 0.0
2018-May-17 01:58N 25°47' W 080°11'0 0.0
2018-May-17 01:28N 25°47' W 080°11'0 0.0
2018-May-17 01:00N 25°47' W 080°11'0 0.0
2018-May-17 00:27N 25°47' W 080°11'0 0.0
2018-May-17 00:00N 25°47' W 080°11'0 0.0
2018-May-16 23:30N 25°47' W 080°11'0 0.0
2018-May-16 22:54N 25°47' W 080°11'0 0.0
2018-May-16 22:30N 25°47' W 080°11'0 0.0
2018-May-16 22:00N 25°47' W 080°11'0 0.0
2018-May-16 21:30N 25°47' W 080°11'0 0.0
2018-May-16 20:57N 25°47' W 080°11'0 0.0
2018-May-16 20:27N 25°47' W 080°11'0 0.0
2018-May-16 20:00N 25°47' W 080°11'0 0.0
2018-May-16 19:30N 25°47' W 080°11'0 0.0
2018-May-16 19:00N 25°47' W 080°11'0 0.0
2018-May-16 18:30N 25°47' W 080°11'0 0.0
2018-May-16 18:00N 25°47' W 080°11'0 0.0
2018-May-16 17:30N 25°47' W 080°11'0 0.0
2018-May-16 16:57N 25°47' W 080°11'  

Dump ship's entire track history